createdAt,value
2023-05-10T00:02:20.004Z,100446.00
2023-05-10T00:04:46.283Z,100450.44
2023-05-10T00:07:12.783Z,100443.53
2023-05-10T00:09:39.114Z,100455.09
2023-05-10T00:12:05.712Z,100445.47
2023-05-10T00:14:32.307Z,100444.81
2023-05-10T00:16:59.007Z,100441.19
2023-05-10T00:19:25.544Z,100431.69
2023-05-10T00:21:51.969Z,100427.47
2023-05-10T00:24:18.255Z,100427.72
2023-05-10T00:26:44.606Z,100418.84
2023-05-10T00:29:10.952Z,100419.66
2023-05-10T00:31:37.364Z,100412.13
2023-05-10T00:34:03.646Z,100420.00
2023-05-10T00:36:30.131Z,100409.53
2023-05-10T00:38:56.509Z,100410.56
2023-05-10T00:41:22.924Z,100403.63
2023-05-10T00:43:49.277Z,100397.69
2023-05-10T00:46:16.757Z,100406.44
2023-05-10T00:48:45.169Z,100415.25
2023-05-10T00:51:11.563Z,100406.50
2023-05-10T00:53:37.987Z,100399.66
2023-05-10T00:56:04.631Z,100395.38
2023-05-10T00:58:31.840Z,100393.81
2023-05-10T01:00:59.225Z,100393.00
2023-05-10T01:03:27.014Z,100387.00
2023-05-10T01:05:53.373Z,100390.59
2023-05-10T01:08:20.452Z,100389.72
2023-05-10T01:10:47.275Z,100390.56
2023-05-10T01:13:14.351Z,100388.16
2023-05-10T01:15:40.971Z,100379.47
2023-05-10T01:18:09.617Z,100383.97
2023-05-10T01:20:44.234Z,100382.25
2023-05-10T01:23:10.472Z,100381.56
2023-05-10T01:25:49.167Z,100378.94
2023-05-10T01:28:53.308Z,100376.34
2023-05-10T01:31:52.803Z,100374.75
2023-05-10T01:34:26.258Z,100389.78
2023-05-10T01:36:59.838Z,100383.72
2023-05-10T01:39:48.189Z,100391.59
2023-05-10T01:42:21.070Z,100392.53
2023-05-10T01:45:03.886Z,100391.69
2023-05-10T01:48:04.850Z,100391.88
2023-05-10T01:50:32.003Z,100392.78
2023-05-10T01:53:01.093Z,100386.66
2023-05-10T01:55:33.233Z,100390.28
2023-05-10T01:58:05.342Z,100391.31
2023-05-10T02:00:32.790Z,100386.13
2023-05-10T02:03:01.115Z,100394.06
2023-05-10T02:05:29.985Z,100389.00
2023-05-10T02:07:57.869Z,100389.00
2023-05-10T02:10:24.207Z,100389.09
2023-05-10T02:12:52.929Z,100383.09
2023-05-10T02:15:23.115Z,100386.69
2023-05-10T02:17:50.384Z,100390.38
2023-05-10T02:20:19.268Z,100378.19
2023-05-10T02:22:50.119Z,100378.16
2023-05-10T02:25:18.563Z,100389.63
2023-05-10T02:27:45.705Z,100384.69
2023-05-10T02:30:13.082Z,100389.81
2023-05-10T02:32:40.272Z,100389.91
2023-05-10T02:35:08.133Z,100381.25
2023-05-10T02:37:36.533Z,100390.09
2023-05-10T02:40:06.208Z,100378.84
2023-05-10T02:42:36.613Z,100378.91
2023-05-10T02:45:09.340Z,100375.47
2023-05-10T02:47:36.178Z,100365.88
2023-05-10T02:50:02.907Z,100364.19
2023-05-10T02:52:37.158Z,100372.09
2023-05-10T02:55:06.547Z,100363.38
2023-05-10T02:57:35.086Z,100369.56
2023-05-10T03:00:04.182Z,100365.47
2023-05-10T03:02:31.642Z,100354.94
2023-05-10T03:04:58.033Z,100359.41
2023-05-10T03:07:24.634Z,100365.47
2023-05-10T03:09:51.448Z,100362.09
2023-05-10T03:13:04.518Z,100351.00
2023-05-10T03:15:58.937Z,100363.13
2023-05-10T03:18:34.639Z,100354.44
2023-05-10T03:21:06.942Z,100360.53
2023-05-10T03:23:44.380Z,100356.22
2023-05-10T03:26:14.311Z,100364.91
2023-05-10T03:28:41.837Z,100354.66
2023-05-10T03:31:08.849Z,100357.91
2023-05-10T03:33:35.441Z,100357.44
2023-05-10T03:36:01.784Z,100363.38
2023-05-10T03:38:30.214Z,100352.03
2023-05-10T03:40:56.900Z,100358.25
2023-05-10T03:43:23.231Z,100361.84
2023-05-10T03:45:49.584Z,100362.72
2023-05-10T03:48:15.881Z,100358.50
2023-05-10T03:50:42.146Z,100352.34
2023-05-10T03:53:08.417Z,100353.22
2023-05-10T03:55:36.955Z,100366.38
2023-05-10T03:58:03.426Z,100355.81
2023-05-10T04:00:29.717Z,100355.91
2023-05-10T04:02:56.096Z,100358.34
2023-05-10T04:05:22.482Z,100357.56
2023-05-10T04:07:50.159Z,100353.31
2023-05-10T04:10:17.338Z,100349.75
2023-05-10T04:12:44.140Z,100356.66
2023-05-10T04:15:10.576Z,100362.06
2023-05-10T04:17:37.708Z,100354.31
2023-05-10T04:20:04.657Z,100355.13
2023-05-10T04:22:31.312Z,100355.00
2023-05-10T04:24:57.880Z,100368.03
2023-05-10T04:27:28.558Z,100362.00
2023-05-10T04:29:55.220Z,100361.97
2023-05-10T04:32:22.937Z,100358.28
2023-05-10T04:34:52.083Z,100355.16
2023-05-10T04:37:19.103Z,100360.94
2023-05-10T04:39:45.694Z,100364.41
2023-05-10T04:42:12.752Z,100362.75
2023-05-10T04:44:39.544Z,100366.16
2023-05-10T04:47:06.198Z,100360.72
2023-05-10T04:49:33.507Z,100359.09
2023-05-10T04:52:00.117Z,100370.41
2023-05-10T04:54:26.647Z,100361.91
2023-05-10T04:56:53.201Z,100360.88
2023-05-10T04:59:19.530Z,100366.75
2023-05-10T05:01:45.959Z,100365.75
2023-05-10T05:04:12.748Z,100368.06
2023-05-10T05:06:39.252Z,100370.72
2023-05-10T05:09:05.567Z,100361.47
2023-05-10T05:11:31.997Z,100363.72
2023-05-10T05:13:59.883Z,100358.91
2023-05-10T05:16:26.715Z,100362.75
2023-05-10T05:18:54.609Z,100356.47
2023-05-10T05:21:22.229Z,100365.84
2023-05-10T05:23:48.664Z,100357.63
2023-05-10T05:26:16.042Z,100366.19
2023-05-10T05:28:42.788Z,100351.31
2023-05-10T05:31:10.048Z,100346.44
2023-05-10T05:33:36.773Z,100352.38
2023-05-10T05:36:05.535Z,100353.88
2023-05-10T05:38:32.314Z,100357.19
2023-05-10T05:40:58.939Z,100364.72
2023-05-10T05:43:25.613Z,100364.13
2023-05-10T05:45:53.955Z,100364.72
2023-05-10T05:48:20.973Z,100367.72
2023-05-10T05:50:47.466Z,100366.78
2023-05-10T05:53:13.777Z,100364.31
2023-05-10T05:55:40.062Z,100366.06
2023-05-10T05:58:06.461Z,100363.75
2023-05-10T06:00:32.828Z,100363.97
2023-05-10T06:02:59.169Z,100364.91
2023-05-10T06:05:25.531Z,100366.59
2023-05-10T06:07:51.864Z,100367.66
2023-05-10T06:10:18.259Z,100359.00
2023-05-10T06:12:44.635Z,100357.00
2023-05-10T06:15:11.343Z,100363.25
2023-05-10T06:17:37.773Z,100364.22
2023-05-10T06:20:04.476Z,100377.97
2023-05-10T06:22:30.821Z,100369.81
2023-05-10T06:24:57.345Z,100374.78
2023-05-10T06:27:24.087Z,100375.69
2023-05-10T06:29:52.276Z,100376.03
2023-05-10T06:32:22.876Z,100370.44
2023-05-10T06:34:50.864Z,100377.06
2023-05-10T06:37:17.298Z,100376.84
2023-05-10T06:39:43.681Z,100375.94
2023-05-10T06:42:11.332Z,100373.31
2023-05-10T06:44:37.840Z,100375.69
2023-05-10T06:47:06.772Z,100386.16
2023-05-10T06:49:33.323Z,100376.34
2023-05-10T06:51:59.725Z,100381.56
2023-05-10T06:54:26.424Z,100376.13
2023-05-10T06:56:52.980Z,100380.59
2023-05-10T06:59:20.547Z,100386.13
2023-05-10T07:01:47.024Z,100384.78
2023-05-10T07:04:13.759Z,100388.56
2023-05-10T07:06:40.093Z,100382.69
2023-05-10T07:09:06.366Z,100387.91
2023-05-10T07:11:33.960Z,100386.75
2023-05-10T07:14:00.569Z,100382.31
2023-05-10T07:16:27.186Z,100381.84
2023-05-10T07:18:54.521Z,100375.75
2023-05-10T07:21:21.228Z,100374.69
2023-05-10T07:23:48.042Z,100386.72
2023-05-10T07:26:15.746Z,100383.03
2023-05-10T07:28:42.822Z,100390.53
2023-05-10T07:31:09.149Z,100387.72
2023-05-10T07:33:35.533Z,100392.28
2023-05-10T07:36:01.802Z,100388.69
2023-05-10T07:38:28.074Z,100386.28
2023-05-10T07:40:54.568Z,100395.59
2023-05-10T07:43:20.949Z,100394.47
2023-05-10T07:45:47.346Z,100393.22
2023-05-10T07:48:13.771Z,100396.50
2023-05-10T07:50:40.026Z,100394.13
2023-05-10T07:53:06.434Z,100401.31
2023-05-10T07:55:32.782Z,100395.34
2023-05-10T07:58:01.936Z,100396.66
2023-05-10T08:00:28.255Z,100399.75
2023-05-10T08:02:54.611Z,100400.00
2023-05-10T08:05:20.978Z,100391.53
2023-05-10T08:07:47.444Z,100396.19
2023-05-10T08:10:14.052Z,100394.34
2023-05-10T08:12:40.456Z,100404.97
2023-05-10T08:15:08.006Z,100409.22
2023-05-10T08:17:34.444Z,100405.78
2023-05-10T08:20:01.049Z,100402.53
2023-05-10T08:22:27.540Z,100402.09
2023-05-10T08:24:53.803Z,100401.25
2023-05-10T08:27:20.068Z,100405.13
2023-05-10T08:29:50.088Z,100408.91
2023-05-10T08:32:17.076Z,100413.63
2023-05-10T08:34:43.497Z,100417.34
2023-05-10T08:37:11.354Z,100410.34
2023-05-10T08:39:38.014Z,100421.41
2023-05-10T08:42:06.455Z,100418.50
2023-05-10T08:44:35.081Z,100413.53
2023-05-10T08:47:06.039Z,100422.56
2023-05-10T08:49:33.942Z,100416.16
2023-05-10T08:52:04.908Z,100416.44
2023-05-10T08:54:33.110Z,100418.22
2023-05-10T08:56:59.678Z,100422.22
2023-05-10T08:59:26.411Z,100417.16
2023-05-10T09:01:54.820Z,100422.75
2023-05-10T09:04:21.959Z,100429.97
2023-05-10T09:06:48.923Z,100439.69
2023-05-10T09:09:17.233Z,100449.81
2023-05-10T09:11:45.254Z,100455.25
2023-05-10T09:14:13.412Z,100450.88
2023-05-10T09:16:41.266Z,100449.31
2023-05-10T09:19:09.346Z,100445.47
2023-05-10T09:21:44.407Z,100444.34
2023-05-10T09:24:10.916Z,100446.19
2023-05-10T09:26:48.284Z,100453.72
2023-05-10T09:29:17.237Z,100447.34
2023-05-10T09:31:49.075Z,100448.88
2023-05-10T09:34:30.805Z,100456.69
2023-05-10T09:37:01.512Z,100452.03
2023-05-10T09:39:34.774Z,100450.28
2023-05-10T09:42:04.763Z,100458.41
2023-05-10T09:44:32.363Z,100458.97
2023-05-10T09:47:01.497Z,100462.38
2023-05-10T09:49:28.142Z,100464.03
2023-05-10T09:52:09.925Z,100462.38
2023-05-10T09:54:36.832Z,100458.00
2023-05-10T09:57:03.340Z,100464.72
2023-05-10T09:59:30.365Z,100468.28
2023-05-10T10:01:58.775Z,100475.13
2023-05-10T10:04:25.550Z,100476.34
2023-05-10T10:07:03.814Z,100481.56
2023-05-10T10:09:30.417Z,100485.41
2023-05-10T10:11:57.563Z,100478.47
2023-05-10T10:14:24.985Z,100488.25
2023-05-10T10:17:05.868Z,100485.47
2023-05-10T10:19:37.503Z,100486.41
2023-05-10T10:22:04.353Z,100492.91
2023-05-10T10:24:30.826Z,100488.09
2023-05-10T10:27:09.923Z,100491.03
2023-05-10T10:29:57.781Z,100498.22
2023-05-10T10:32:36.729Z,100498.00
2023-05-10T10:35:03.407Z,100503.94
2023-05-10T10:37:48.004Z,100513.97
2023-05-10T10:40:33.618Z,100508.66
2023-05-10T10:43:27.564Z,100514.97
2023-05-10T10:46:15.862Z,100514.25
2023-05-10T10:48:48.038Z,100511.50
2023-05-10T10:51:14.906Z,100512.75
2023-05-10T10:53:41.905Z,100520.63
2023-05-10T10:56:10.844Z,100518.00
2023-05-10T10:58:40.441Z,100529.75
2023-05-10T11:01:15.634Z,100529.19
2023-05-10T11:04:15.367Z,100536.75
2023-05-10T11:06:43.316Z,100541.72
2023-05-10T11:09:12.237Z,100561.81
2023-05-10T11:11:55.750Z,100565.81
2023-05-10T11:14:23.358Z,100577.13
2023-05-10T11:16:49.756Z,100582.47
2023-05-10T11:19:17.768Z,100588.81
2023-05-10T11:21:55.119Z,100602.34
2023-05-10T11:24:28.797Z,100603.63
2023-05-10T11:26:55.843Z,100610.19
2023-05-10T11:29:22.246Z,100615.34
2023-05-10T11:31:50.106Z,100618.59
2023-05-10T11:34:31.277Z,100619.94
2023-05-10T11:36:58.263Z,100624.31
2023-05-10T11:39:32.422Z,100622.09
2023-05-10T11:41:59.304Z,100630.63
2023-05-10T11:44:33.242Z,100635.41
2023-05-10T11:47:03.281Z,100636.53
2023-05-10T11:49:29.820Z,100638.94
2023-05-10T11:52:08.765Z,100640.69
2023-05-10T11:54:35.978Z,100640.81
2023-05-10T11:57:02.644Z,100636.59
2023-05-10T11:59:28.977Z,100648.75
2023-05-10T12:01:55.741Z,100643.91
2023-05-10T12:04:22.610Z,100646.19
2023-05-10T12:06:49.219Z,100652.84
2023-05-10T12:09:15.652Z,100644.81
2023-05-10T12:11:44.240Z,100644.59
2023-05-10T12:14:11.826Z,100645.75
2023-05-10T12:16:38.694Z,100644.53
2023-05-10T12:19:06.423Z,100646.94
2023-05-10T12:21:34.172Z,100647.06
2023-05-10T12:24:03.389Z,100649.75
2023-05-10T12:26:31.007Z,100656.84
2023-05-10T12:29:13.715Z,100647.72
2023-05-10T12:31:57.889Z,100660.66
2023-05-10T12:34:35.320Z,100668.22
2023-05-10T12:37:04.018Z,100665.06
2023-05-10T12:39:48.377Z,100670.44
2023-05-10T12:42:14.806Z,100664.50
2023-05-10T12:44:42.074Z,100665.09
2023-05-10T12:47:09.150Z,100673.88
2023-05-10T12:49:35.978Z,100683.53
2023-05-10T12:52:02.643Z,100688.41
2023-05-10T12:54:29.082Z,100684.66
2023-05-10T12:56:55.862Z,100684.59
2023-05-10T12:59:22.352Z,100690.06
2023-05-10T13:01:48.724Z,100698.53
2023-05-10T13:04:15.042Z,100693.75
2023-05-10T13:06:41.485Z,100688.63
2023-05-10T13:09:07.894Z,100700.31
2023-05-10T13:11:34.499Z,100697.69
2023-05-10T13:14:01.019Z,100693.28
2023-05-10T13:16:27.707Z,100699.81
2023-05-10T13:18:54.194Z,100701.13
2023-05-10T13:21:20.666Z,100701.00
2023-05-10T13:23:47.617Z,100700.25
2023-05-10T13:26:14.438Z,100712.97
2023-05-10T13:28:41.516Z,100703.81
2023-05-10T13:31:08.616Z,100705.44
2023-05-10T13:33:35.028Z,100707.03
2023-05-10T13:36:03.485Z,100695.91
2023-05-10T13:38:30.314Z,100699.81
2023-05-10T13:40:57.024Z,100689.53
2023-05-10T13:43:27.584Z,100697.69
2023-05-10T13:45:54.174Z,100696.97
2023-05-10T13:48:20.588Z,100691.56
2023-05-10T13:50:47.243Z,100692.38
2023-05-10T13:53:15.289Z,100697.72
2023-05-10T13:55:42.289Z,100695.66
2023-05-10T13:58:08.573Z,100695.09
2023-05-10T14:00:35.041Z,100691.69
2023-05-10T14:03:01.472Z,100694.25
2023-05-10T14:05:28.248Z,100699.28
2023-05-10T14:07:54.921Z,100692.56
2023-05-10T14:10:21.438Z,100678.03
2023-05-10T14:12:47.744Z,100684.03
2023-05-10T14:15:14.076Z,100677.59
2023-05-10T14:17:40.561Z,100681.34
2023-05-10T14:20:07.688Z,100672.97
2023-05-10T14:22:34.020Z,100678.31
2023-05-10T14:25:01.134Z,100676.47
2023-05-10T14:27:27.681Z,100672.19
2023-05-10T14:29:54.491Z,100669.81
2023-05-10T14:32:20.886Z,100674.34
2023-05-10T14:34:47.400Z,100659.94
2023-05-10T14:37:14.772Z,100664.41
2023-05-10T14:39:41.288Z,100669.25
2023-05-10T14:42:08.535Z,100669.66
2023-05-10T14:44:35.130Z,100666.97
2023-05-10T14:47:01.595Z,100665.78
2023-05-10T14:49:28.348Z,100663.41
2023-05-10T14:51:55.357Z,100663.03
2023-05-10T14:54:22.278Z,100678.41
2023-05-10T14:56:50.682Z,100671.94
2023-05-10T14:59:17.024Z,100675.53
2023-05-10T15:01:44.168Z,100674.03
2023-05-10T15:04:11.227Z,100667.94
2023-05-10T15:06:38.041Z,100667.41
2023-05-10T15:09:04.510Z,100664.25
2023-05-10T15:11:31.175Z,100671.66
2023-05-10T15:13:57.663Z,100679.75
2023-05-10T15:16:24.325Z,100683.06
2023-05-10T15:18:50.865Z,100686.69
2023-05-10T15:21:17.282Z,100690.22
2023-05-10T15:23:43.621Z,100688.28
2023-05-10T15:26:10.027Z,100692.19
2023-05-10T15:28:36.491Z,100688.34
2023-05-10T15:31:03.871Z,100694.94
2023-05-10T15:33:30.159Z,100697.97
2023-05-10T15:35:56.557Z,100695.06
2023-05-10T15:38:23.461Z,100696.84
2023-05-10T15:40:49.791Z,100700.38
2023-05-10T15:43:16.286Z,100696.50
2023-05-10T15:45:42.805Z,100688.06
2023-05-10T15:48:09.207Z,100688.47
2023-05-10T15:50:35.570Z,100683.91
2023-05-10T15:53:01.961Z,100685.84
2023-05-10T15:55:28.370Z,100691.78
2023-05-10T15:57:54.806Z,100693.16
2023-05-10T16:00:21.493Z,100691.53
2023-05-10T16:02:48.015Z,100690.66
2023-05-10T16:05:14.535Z,100697.38
2023-05-10T16:07:41.875Z,100698.75
2023-05-10T16:10:10.303Z,100695.59
2023-05-10T16:12:36.827Z,100705.75
2023-05-10T16:15:03.413Z,100700.34
2023-05-10T16:17:29.770Z,100701.66
2023-05-10T16:19:56.198Z,100710.25
2023-05-10T16:22:26.945Z,100704.22
2023-05-10T16:24:53.615Z,100702.97
2023-05-10T16:27:20.004Z,100705.06
2023-05-10T16:29:47.285Z,100710.56
2023-05-10T16:32:13.637Z,100707.03
2023-05-10T16:34:39.930Z,100711.72
2023-05-10T16:37:06.267Z,100718.94
2023-05-10T16:39:32.574Z,100725.00
2023-05-10T16:41:58.983Z,100727.38
2023-05-10T16:44:25.946Z,100722.91
2023-05-10T16:46:53.077Z,100732.91
2023-05-10T16:49:19.498Z,100735.53
2023-05-10T16:51:45.875Z,100735.06
2023-05-10T16:54:12.432Z,100734.16
2023-05-10T16:56:38.724Z,100735.00
2023-05-10T16:59:05.666Z,100733.47
2023-05-10T17:01:33.775Z,100733.22
2023-05-10T17:04:00.258Z,100743.03
2023-05-10T17:06:26.674Z,100738.59
2023-05-10T17:08:52.953Z,100742.63
2023-05-10T17:11:20.919Z,100744.03
2023-05-10T17:13:47.665Z,100754.13
2023-05-10T17:16:14.061Z,100763.84
2023-05-10T17:18:41.102Z,100778.06
2023-05-10T17:21:09.171Z,100787.31
2023-05-10T17:23:35.457Z,100801.84
2023-05-10T17:26:04.312Z,100809.81
2023-05-10T17:28:30.950Z,100817.66
2023-05-10T17:30:58.102Z,100822.72
2023-05-10T17:33:24.468Z,100826.88
2023-05-10T17:35:50.880Z,100827.25
2023-05-10T17:38:17.201Z,100841.66
2023-05-10T17:40:43.521Z,100828.50
2023-05-10T17:43:09.801Z,100833.59
2023-05-10T17:45:36.213Z,100834.28
2023-05-10T17:48:04.039Z,100838.63
2023-05-10T17:50:32.082Z,100844.81
2023-05-10T17:52:58.356Z,100842.09
2023-05-10T17:55:24.919Z,100843.53
2023-05-10T17:57:51.882Z,100846.78
2023-05-10T18:00:18.576Z,100848.75
2023-05-10T18:02:44.899Z,100851.59
2023-05-10T18:05:11.611Z,100847.69
2023-05-10T18:07:37.999Z,100853.19
2023-05-10T18:10:04.593Z,100859.59
2023-05-10T18:12:30.990Z,100861.63
2023-05-10T18:14:57.573Z,100857.13
2023-05-10T18:17:23.895Z,100872.66
2023-05-10T18:19:50.235Z,100863.06
2023-05-10T18:22:16.554Z,100866.69
2023-05-10T18:24:42.873Z,100866.91
2023-05-10T18:27:09.202Z,100874.16
2023-05-10T18:29:36.205Z,100874.09
2023-05-10T18:32:02.639Z,100873.88
2023-05-10T18:34:28.988Z,100872.50
2023-05-10T18:36:55.726Z,100867.56
2023-05-10T18:39:22.040Z,100867.81
2023-05-10T18:41:49.011Z,100875.03
2023-05-10T18:44:15.331Z,100872.56
2023-05-10T18:46:42.359Z,100875.13
2023-05-10T18:49:09.150Z,100880.09
2023-05-10T18:51:35.720Z,100880.56
2023-05-10T18:54:02.041Z,100892.44
2023-05-10T18:56:28.392Z,100899.09
2023-05-10T18:58:54.836Z,100901.44
2023-05-10T19:01:21.264Z,100912.03
2023-05-10T19:03:47.589Z,100913.03
2023-05-10T19:06:13.933Z,100931.59
2023-05-10T19:08:40.359Z,100926.16
2023-05-10T19:11:06.853Z,100932.44
2023-05-10T19:13:34.166Z,100937.13
2023-05-10T19:16:05.208Z,100933.16
2023-05-10T19:18:33.800Z,100944.22
2023-05-10T19:21:04.207Z,100947.22
2023-05-10T19:23:34.220Z,100950.31
2023-05-10T19:26:00.955Z,100953.06
2023-05-10T19:28:27.633Z,100952.03
2023-05-10T19:30:53.983Z,100957.00
2023-05-10T19:33:20.949Z,100951.19
2023-05-10T19:35:51.288Z,100960.22
2023-05-10T19:38:20.912Z,100959.16
2023-05-10T19:40:47.403Z,100972.34
2023-05-10T19:43:13.886Z,100976.53
2023-05-10T19:45:40.257Z,100978.50
2023-05-10T19:48:06.874Z,100967.19
2023-05-10T19:50:33.434Z,100971.44
2023-05-10T19:53:00.582Z,100984.50
2023-05-10T19:55:29.664Z,100981.25
2023-05-10T19:57:56.682Z,100986.50
2023-05-10T20:00:25.430Z,100989.19
2023-05-10T20:02:52.127Z,100984.97
2023-05-10T20:05:18.665Z,100985.97
2023-05-10T20:07:45.302Z,100989.56
2023-05-10T20:10:15.313Z,100987.03
2023-05-10T20:12:41.620Z,100994.03
2023-05-10T20:15:08.422Z,100994.22
2023-05-10T20:17:35.436Z,100998.72
2023-05-10T20:20:01.865Z,100996.38
2023-05-10T20:22:28.154Z,101003.41
2023-05-10T20:24:56.008Z,101005.06
2023-05-10T20:27:22.628Z,101002.59
2023-05-10T20:29:48.961Z,101006.06
2023-05-10T20:32:15.255Z,101006.19
2023-05-10T20:34:41.738Z,101013.97
2023-05-10T20:37:08.154Z,101015.75
2023-05-10T20:39:34.516Z,101011.47
2023-05-10T20:42:00.779Z,101012.06
2023-05-10T20:44:27.049Z,101013.97
2023-05-10T20:46:53.458Z,101014.47
2023-05-10T20:49:20.207Z,101019.91
2023-05-10T20:51:46.525Z,101009.94
2023-05-10T20:54:12.891Z,101010.25
2023-05-10T20:56:39.561Z,101011.00
2023-05-10T20:59:05.893Z,101011.00
2023-05-10T21:01:32.246Z,101015.47
2023-05-10T21:03:58.604Z,101018.50
2023-05-10T21:06:25.078Z,101013.13
2023-05-10T21:08:51.367Z,101016.06
2023-05-10T21:11:17.653Z,101014.66
2023-05-10T21:13:43.923Z,101018.00
2023-05-10T21:16:10.239Z,101007.03
2023-05-10T21:18:36.596Z,101008.09
2023-05-10T21:21:03.092Z,101017.31
2023-05-10T21:23:29.402Z,101014.25
2023-05-10T21:25:55.792Z,101010.56
2023-05-10T21:28:22.101Z,101011.63
2023-05-10T21:30:48.420Z,101017.06
2023-05-10T21:33:14.718Z,101016.50
2023-05-10T21:35:42.720Z,101013.75
2023-05-10T21:38:09.707Z,101011.13
2023-05-10T21:40:36.419Z,101017.41
2023-05-10T21:43:02.741Z,101017.41
2023-05-10T21:45:32.579Z,101014.81
2023-05-10T21:47:59.887Z,101011.25
2023-05-10T21:50:27.349Z,101013.84
2023-05-10T21:52:54.044Z,101009.84
2023-05-10T21:55:20.407Z,101014.63
2023-05-10T21:57:46.823Z,101017.03
2023-05-10T22:00:13.656Z,101005.34
2023-05-10T22:02:40.575Z,101007.91
2023-05-10T22:05:07.262Z,101011.91
2023-05-10T22:07:34.054Z,101019.41
2023-05-10T22:10:00.386Z,101019.56
2023-05-10T22:12:26.769Z,101032.69
2023-05-10T22:15:06.486Z,101037.84
2023-05-10T22:17:38.372Z,101034.97
2023-05-10T22:20:07.135Z,101041.22
2023-05-10T22:22:33.498Z,101036.47
2023-05-10T22:24:59.814Z,101038.28
2023-05-10T22:27:26.230Z,101043.59
2023-05-10T22:29:52.799Z,101041.81
2023-05-10T22:32:19.208Z,101037.38
2023-05-10T22:34:45.601Z,101045.22
2023-05-10T22:37:14.651Z,101046.31
2023-05-10T22:39:40.921Z,101047.78
2023-05-10T22:42:08.068Z,101046.59
2023-05-10T22:44:34.446Z,101043.16
2023-05-10T22:47:00.762Z,101050.50
2023-05-10T22:49:27.090Z,101048.44
2023-05-10T22:51:53.344Z,101050.03
2023-05-10T22:54:19.619Z,101051.88
2023-05-10T22:56:46.184Z,101061.88
2023-05-10T22:59:12.476Z,101058.16
2023-05-10T23:01:38.866Z,101060.56
2023-05-10T23:04:05.493Z,101061.13
2023-05-10T23:06:32.972Z,101065.72
2023-05-10T23:08:59.261Z,101070.34
2023-05-10T23:11:25.655Z,101069.28
2023-05-10T23:13:51.992Z,101072.53
2023-05-10T23:16:18.420Z,101067.91
2023-05-10T23:18:44.861Z,101074.75
2023-05-10T23:21:11.244Z,101070.03
2023-05-10T23:23:37.536Z,101074.69
2023-05-10T23:26:05.149Z,101066.19
2023-05-10T23:28:32.191Z,101075.91
2023-05-10T23:30:58.734Z,101070.75
2023-05-10T23:33:26.391Z,101077.56
2023-05-10T23:35:54.308Z,101084.66
2023-05-10T23:38:21.426Z,101086.38
2023-05-10T23:40:51.434Z,101078.69
2023-05-10T23:43:19.595Z,101082.78
2023-05-10T23:45:56.418Z,101081.19
2023-05-10T23:48:23.102Z,101081.03
2023-05-10T23:50:49.842Z,101075.53
2023-05-10T23:53:16.640Z,101081.47
2023-05-10T23:55:43.053Z,101081.13
2023-05-10T23:58:09.506Z,101083.53
